Terminal Aerodrome Forecast
Issued by NWS

Home | Current Version | Previous Version | Graphics & Text | Print | Product List | Glossary On
Versions: 1 2 3 4 5 6 7 8 9 10 11 12 13 14 15 16 17 18 19 20 21 22 23 24 25 26 27 28 29 30 31 32 33 34
000
FTUS43 KBIS 250347 AAA
TAFDIK
TAF AMD
KDIK 250347Z 2504/2524 18004KT P6SM BKN080
     FM251100 24006KT P6SM VCSH BKN035
      TEMPO 2511/2514 3SM -SN BKN020
     FM251400 32010KT P6SM VCSH BKN015
     FM251900 31011KT P6SM BKN015
     FM252000 27010KT P6SM BKN040=

USA.gov is the U.S. government's official web portal to all federal, state and local government web resources and services.